sensor_id;sensor_type;location;lat;lon;timestamp;temperature;humidity
17891;DHT22;9071;48.220;14.480;2022-08-19T00:02:16;18.00;99.90
17891;DHT22;9071;48.220;14.480;2022-08-19T00:07:18;17.90;99.90
17891;DHT22;9071;48.220;14.480;2022-08-19T00:12:21;17.90;99.90
17891;DHT22;9071;48.220;14.480;2022-08-19T00:17:24;17.80;99.90
17891;DHT22;9071;48.220;14.480;2022-08-19T00:22:26;17.80;99.90
17891;DHT22;9071;48.220;14.480;2022-08-19T00:27:29;17.70;99.90
17891;DHT22;9071;48.220;14.480;2022-08-19T00:32:32;17.70;99.90
17891;DHT22;9071;48.220;14.480;2022-08-19T00:37:35;17.70;99.90
17891;DHT22;9071;48.220;14.480;2022-08-19T00:42:38;17.80;99.90
17891;DHT22;9071;48.220;14.480;2022-08-19T00:47:41;17.80;99.90
17891;DHT22;9071;48.220;14.480;2022-08-19T00:52:46;17.60;99.90
17891;DHT22;9071;48.220;14.480;2022-08-19T00:57:51;17.50;99.90
17891;DHT22;9071;48.220;14.480;2022-08-19T01:02:57;17.40;99.90
17891;DHT22;9071;48.220;14.480;2022-08-19T01:08:00;17.50;99.90
17891;DHT22;9071;48.220;14.480;2022-08-19T01:13:04;17.40;99.90
17891;DHT22;9071;48.220;14.480;2022-08-19T01:18:11;17.30;99.90
17891;DHT22;9071;48.220;14.480;2022-08-19T01:23:15;17.20;99.90
17891;DHT22;9071;48.220;14.480;2022-08-19T01:28:19;17.20;99.90
17891;DHT22;9071;48.220;14.480;2022-08-19T01:33:21;17.20;99.90
17891;DHT22;9071;48.220;14.480;2022-08-19T01:38:26;17.20;99.90
17891;DHT22;9071;48.220;14.480;2022-08-19T01:43:32;17.20;99.90
17891;DHT22;9071;48.220;14.480;2022-08-19T01:48:37;17.20;99.90
17891;DHT22;9071;48.220;14.480;2022-08-19T01:53:41;17.20;99.90
17891;DHT22;9071;48.220;14.480;2022-08-19T01:58:48;17.20;99.90
17891;DHT22;9071;48.220;14.480;2022-08-19T02:03:51;17.40;99.90
17891;DHT22;9071;48.220;14.480;2022-08-19T02:08:56;17.40;99.90
17891;DHT22;9071;48.220;14.480;2022-08-19T02:13:58;17.40;99.90
17891;DHT22;9071;48.220;14.480;2022-08-19T02:19:01;17.40;99.90
17891;DHT22;9071;48.220;14.480;2022-08-19T02:24:05;17.50;99.90
17891;DHT22;9071;48.220;14.480;2022-08-19T02:29:07;17.50;99.90
17891;DHT22;9071;48.220;14.480;2022-08-19T02:34:09;17.50;99.90
17891;DHT22;9071;48.220;14.480;2022-08-19T02:39:12;17.40;99.90
17891;DHT22;9071;48.220;14.480;2022-08-19T02:44:15;17.40;99.90
17891;DHT22;9071;48.220;14.480;2022-08-19T02:49:17;17.40;99.90
17891;DHT22;9071;48.220;14.480;2022-08-19T02:54:20;17.40;99.90
17891;DHT22;9071;48.220;14.480;2022-08-19T02:59:22;17.30;99.90
17891;DHT22;9071;48.220;14.480;2022-08-19T03:04:25;17.30;99.90
17891;DHT22;9071;48.220;14.480;2022-08-19T03:09:28;17.20;99.90
17891;DHT22;9071;48.220;14.480;2022-08-19T03:14:31;17.20;99.90
17891;DHT22;9071;48.220;14.480;2022-08-19T03:19:33;17.10;99.90
17891;DHT22;9071;48.220;14.480;2022-08-19T03:24:38;17.10;99.90
17891;DHT22;9071;48.220;14.480;2022-08-19T03:29:41;17.10;99.90
17891;DHT22;9071;48.220;14.480;2022-08-19T03:34:43;17.10;99.90
17891;DHT22;9071;48.220;14.480;2022-08-19T03:39:46;17.10;99.90
17891;DHT22;9071;48.220;14.480;2022-08-19T03:44:48;17.00;99.90
17891;DHT22;9071;48.220;14.480;2022-08-19T03:49:51;16.90;99.90
17891;DHT22;9071;48.220;14.480;2022-08-19T03:54:55;16.80;99.90
17891;DHT22;9071;48.220;14.480;2022-08-19T03:59:57;16.80;99.90
17891;DHT22;9071;48.220;14.480;2022-08-19T04:04:59;16.80;99.90
17891;DHT22;9071;48.220;14.480;2022-08-19T04:10:03;16.80;99.90
17891;DHT22;9071;48.220;14.480;2022-08-19T04:15:06;16.90;99.90
17891;DHT22;9071;48.220;14.480;2022-08-19T04:20:09;16.90;99.90
17891;DHT22;9071;48.220;14.480;2022-08-19T04:25:13;17.00;99.90
17891;DHT22;9071;48.220;14.480;2022-08-19T04:30:15;17.10;99.90
17891;DHT22;9071;48.220;14.480;2022-08-19T04:35:36;17.20;99.90
17891;DHT22;9071;48.220;14.480;2022-08-19T04:40:43;17.30;99.90
17891;DHT22;9071;48.220;14.480;2022-08-19T04:46:05;17.40;99.90
17891;DHT22;9071;48.220;14.480;2022-08-19T04:51:09;17.50;99.90
17891;DHT22;9071;48.220;14.480;2022-08-19T04:56:16;17.60;99.90
17891;DHT22;9071;48.220;14.480;2022-08-19T05:01:22;17.70;99.90
17891;DHT22;9071;48.220;14.480;2022-08-19T05:06:24;17.70;99.90
17891;DHT22;9071;48.220;14.480;2022-08-19T05:11:30;17.80;99.90
17891;DHT22;9071;48.220;14.480;2022-08-19T05:16:33;17.80;99.90
17891;DHT22;9071;48.220;14.480;2022-08-19T05:21:35;17.80;99.90
17891;DHT22;9071;48.220;14.480;2022-08-19T05:26:57;17.80;99.90
17891;DHT22;9071;48.220;14.480;2022-08-19T05:32:00;17.80;99.90
17891;DHT22;9071;48.220;14.480;2022-08-19T05:37:03;17.80;99.90
17891;DHT22;9071;48.220;14.480;2022-08-19T05:42:09;17.80;99.90
17891;DHT22;9071;48.220;14.480;2022-08-19T05:47:12;17.80;99.90
17891;DHT22;9071;48.220;14.480;2022-08-19T05:52:15;17.80;99.90
17891;DHT22;9071;48.220;14.480;2022-08-19T05:57:19;17.80;99.90
17891;DHT22;9071;48.220;14.480;2022-08-19T06:02:21;17.90;99.90
17891;DHT22;9071;48.220;14.480;2022-08-19T06:07:24;17.90;99.90
17891;DHT22;9071;48.220;14.480;2022-08-19T06:12:27;18.10;99.90
17891;DHT22;9071;48.220;14.480;2022-08-19T06:17:33;18.60;99.90
17891;DHT22;9071;48.220;14.480;2022-08-19T06:22:37;19.20;99.90
17891;DHT22;9071;48.220;14.480;2022-08-19T06:27:41;19.90;99.90
17891;DHT22;9071;48.220;14.480;2022-08-19T06:32:43;20.50;99.90
17891;DHT22;9071;48.220;14.480;2022-08-19T06:37:45;20.50;99.90
17891;DHT22;9071;48.220;14.480;2022-08-19T06:42:49;21.90;99.90
17891;DHT22;9071;48.220;14.480;2022-08-19T06:47:51;24.40;99.90
17891;DHT22;9071;48.220;14.480;2022-08-19T06:52:56;25.70;99.90
17891;DHT22;9071;48.220;14.480;2022-08-19T06:58:01;26.30;99.90
17891;DHT22;9071;48.220;14.480;2022-08-19T07:03:04;25.50;99.90
17891;DHT22;9071;48.220;14.480;2022-08-19T07:08:06;24.90;99.90
17891;DHT22;9071;48.220;14.480;2022-08-19T07:13:09;25.00;99.90
17891;DHT22;9071;48.220;14.480;2022-08-19T07:18:12;25.40;99.90
17891;DHT22;9071;48.220;14.480;2022-08-19T07:23:14;26.50;99.90
17891;DHT22;9071;48.220;14.480;2022-08-19T07:28:17;27.90;99.90
17891;DHT22;9071;48.220;14.480;2022-08-19T07:33:22;28.70;99.90
17891;DHT22;9071;48.220;14.480;2022-08-19T07:38:24;27.80;99.90
17891;DHT22;9071;48.220;14.480;2022-08-19T07:43:28;26.40;99.90
17891;DHT22;9071;48.220;14.480;2022-08-19T07:48:30;25.70;99.90
17891;DHT22;9071;48.220;14.480;2022-08-19T07:53:33;25.50;99.90
17891;DHT22;9071;48.220;14.480;2022-08-19T07:58:39;25.80;99.90
17891;DHT22;9071;48.220;14.480;2022-08-19T08:03:42;26.40;99.90
17891;DHT22;9071;48.220;14.480;2022-08-19T08:09:03;27.60;99.90
17891;DHT22;9071;48.220;14.480;2022-08-19T08:14:25;27.50;99.90
17891;DHT22;9071;48.220;14.480;2022-08-19T08:19:28;26.10;99.90
17891;DHT22;9071;48.220;14.480;2022-08-19T08:24:31;25.50;99.90
17891;DHT22;9071;48.220;14.480;2022-08-19T08:29:35;25.00;99.90
17891;DHT22;9071;48.220;14.480;2022-08-19T08:34:38;25.20;99.90
17891;DHT22;9071;48.220;14.480;2022-08-19T08:39:40;25.30;99.90
17891;DHT22;9071;48.220;14.480;2022-08-19T08:44:49;24.80;99.90
17891;DHT22;9071;48.220;14.480;2022-08-19T08:49:56;24.40;99.90
17891;DHT22;9071;48.220;14.480;2022-08-19T08:55:03;24.30;99.90
17891;DHT22;9071;48.220;14.480;2022-08-19T09:00:10;24.30;99.90
17891;DHT22;9071;48.220;14.480;2022-08-19T09:05:14;24.70;99.90
17891;DHT22;9071;48.220;14.480;2022-08-19T09:10:23;25.20;99.90
17891;DHT22;9071;48.220;14.480;2022-08-19T09:15:35;24.80;99.90
17891;DHT22;9071;48.220;14.480;2022-08-19T09:20:38;24.50;99.90
17891;DHT22;9071;48.220;14.480;2022-08-19T09:25:40;25.30;99.90
17891;DHT22;9071;48.220;14.480;2022-08-19T09:30:44;25.50;99.90
17891;DHT22;9071;48.220;14.480;2022-08-19T09:35:46;25.30;99.90
17891;DHT22;9071;48.220;14.480;2022-08-19T09:40:48;25.30;99.90
17891;DHT22;9071;48.220;14.480;2022-08-19T09:45:52;24.80;99.90
17891;DHT22;9071;48.220;14.480;2022-08-19T09:50:54;24.70;99.90
17891;DHT22;9071;48.220;14.480;2022-08-19T09:55:56;25.10;99.90
17891;DHT22;9071;48.220;14.480;2022-08-19T10:01:00;26.00;99.90
17891;DHT22;9071;48.220;14.480;2022-08-19T10:06:04;26.60;99.90
17891;DHT22;9071;48.220;14.480;2022-08-19T10:11:07;27.60;99.90
17891;DHT22;9071;48.220;14.480;2022-08-19T10:16:14;27.50;99.90
17891;DHT22;9071;48.220;14.480;2022-08-19T10:21:18;27.60;99.90
17891;DHT22;9071;48.220;14.480;2022-08-19T10:26:23;28.10;99.90
17891;DHT22;9071;48.220;14.480;2022-08-19T10:31:29;28.10;99.90
17891;DHT22;9071;48.220;14.480;2022-08-19T10:36:33;27.20;99.90
17891;DHT22;9071;48.220;14.480;2022-08-19T10:41:38;26.60;99.90
17891;DHT22;9071;48.220;14.480;2022-08-19T10:46:43;26.20;99.90
17891;DHT22;9071;48.220;14.480;2022-08-19T10:51:47;26.60;99.90
17891;DHT22;9071;48.220;14.480;2022-08-19T10:57:07;26.60;99.90
17891;DHT22;9071;48.220;14.480;2022-08-19T11:02:11;26.70;99.90
17891;DHT22;9071;48.220;14.480;2022-08-19T11:07:13;26.90;99.90
17891;DHT22;9071;48.220;14.480;2022-08-19T11:12:15;26.90;99.90
17891;DHT22;9071;48.220;14.480;2022-08-19T11:17:40;27.30;99.90
17891;DHT22;9071;48.220;14.480;2022-08-19T11:22:44;27.10;99.90
17891;DHT22;9071;48.220;14.480;2022-08-19T11:27:46;27.20;99.90
17891;DHT22;9071;48.220;14.480;2022-08-19T11:32:52;27.30;99.90
17891;DHT22;9071;48.220;14.480;2022-08-19T11:37:54;27.50;99.90
17891;DHT22;9071;48.220;14.480;2022-08-19T11:42:58;27.60;99.90
17891;DHT22;9071;48.220;14.480;2022-08-19T11:48:02;27.90;99.90
17891;DHT22;9071;48.220;14.480;2022-08-19T11:53:04;28.00;99.90
17891;DHT22;9071;48.220;14.480;2022-08-19T11:58:06;28.20;99.90
17891;DHT22;9071;48.220;14.480;2022-08-19T12:03:10;28.60;99.90
17891;DHT22;9071;48.220;14.480;2022-08-19T12:08:12;28.70;99.90
17891;DHT22;9071;48.220;14.480;2022-08-19T12:13:15;28.70;99.90
17891;DHT22;9071;48.220;14.480;2022-08-19T12:18:20;28.70;99.90
17891;DHT22;9071;48.220;14.480;2022-08-19T12:23:22;28.60;99.90
17891;DHT22;9071;48.220;14.480;2022-08-19T12:28:25;28.60;99.90
17891;DHT22;9071;48.220;14.480;2022-08-19T12:33:29;28.60;99.90
17891;DHT22;9071;48.220;14.480;2022-08-19T12:38:33;28.50;99.90
17891;DHT22;9071;48.220;14.480;2022-08-19T12:43:36;28.50;99.90
17891;DHT22;9071;48.220;14.480;2022-08-19T12:48:40;28.80;99.90
17891;DHT22;9071;48.220;14.480;2022-08-19T12:53:43;28.90;99.90
17891;DHT22;9071;48.220;14.480;2022-08-19T12:58:45;28.90;99.90
17891;DHT22;9071;48.220;14.480;2022-08-19T13:03:49;29.20;99.90
17891;DHT22;9071;48.220;14.480;2022-08-19T13:08:53;29.60;99.90
17891;DHT22;9071;48.220;14.480;2022-08-19T13:13:55;29.70;99.90
17891;DHT22;9071;48.220;14.480;2022-08-19T13:18:59;29.60;99.90
17891;DHT22;9071;48.220;14.480;2022-08-19T13:24:04;29.60;99.90
17891;DHT22;9071;48.220;14.480;2022-08-19T13:29:06;29.90;99.90
17891;DHT22;9071;48.220;14.480;2022-08-19T13:34:30;30.10;99.90
17891;DHT22;9071;48.220;14.480;2022-08-19T13:39:34;30.00;99.90
17891;DHT22;9071;48.220;14.480;2022-08-19T13:44:36;30.00;99.90
17891;DHT22;9071;48.220;14.480;2022-08-19T13:49:39;29.80;99.90
17891;DHT22;9071;48.220;14.480;2022-08-19T13:54:42;29.90;99.90
17891;DHT22;9071;48.220;14.480;2022-08-19T13:59:44;29.30;99.90
17891;DHT22;9071;48.220;14.480;2022-08-19T14:04:47;29.20;99.90
17891;DHT22;9071;48.220;14.480;2022-08-19T14:09:50;29.20;99.90
17891;DHT22;9071;48.220;14.480;2022-08-19T14:14:52;29.30;99.90
17891;DHT22;9071;48.220;14.480;2022-08-19T14:19:57;29.50;99.90
17891;DHT22;9071;48.220;14.480;2022-08-19T14:25:01;29.30;99.90
17891;DHT22;9071;48.220;14.480;2022-08-19T14:30:06;29.30;99.90
17891;DHT22;9071;48.220;14.480;2022-08-19T14:35:11;29.20;99.90
17891;DHT22;9071;48.220;14.480;2022-08-19T14:40:16;28.70;99.90
17891;DHT22;9071;48.220;14.480;2022-08-19T14:45:21;28.60;99.90
17891;DHT22;9071;48.220;14.480;2022-08-19T14:50:24;28.20;99.90
17891;DHT22;9071;48.220;14.480;2022-08-19T14:55:26;28.00;99.90
17891;DHT22;9071;48.220;14.480;2022-08-19T15:00:28;27.90;99.90
17891;DHT22;9071;48.220;14.480;2022-08-19T15:05:32;28.00;99.90
17891;DHT22;9071;48.220;14.480;2022-08-19T15:10:34;28.20;99.90
17891;DHT22;9071;48.220;14.480;2022-08-19T15:15:36;28.20;99.90
17891;DHT22;9071;48.220;14.480;2022-08-19T15:20:41;28.10;99.90
17891;DHT22;9071;48.220;14.480;2022-08-19T15:25:44;28.00;99.90
17891;DHT22;9071;48.220;14.480;2022-08-19T15:30:46;27.80;99.90
17891;DHT22;9071;48.220;14.480;2022-08-19T15:35:49;27.40;99.90
17891;DHT22;9071;48.220;14.480;2022-08-19T15:40:52;27.20;99.90
17891;DHT22;9071;48.220;14.480;2022-08-19T15:46:16;26.10;99.90
17891;DHT22;9071;48.220;14.480;2022-08-19T15:51:20;24.30;99.90
17891;DHT22;9071;48.220;14.480;2022-08-19T15:56:23;23.00;99.90
17891;DHT22;9071;48.220;14.480;2022-08-19T16:01:25;21.90;99.90
17891;DHT22;9071;48.220;14.480;2022-08-19T16:06:47;21.40;99.90
17891;DHT22;9071;48.220;14.480;2022-08-19T16:11:50;21.00;99.90
17891;DHT22;9071;48.220;14.480;2022-08-19T16:16:52;20.70;99.90
17891;DHT22;9071;48.220;14.480;2022-08-19T16:21:57;20.10;99.90
17891;DHT22;9071;48.220;14.480;2022-08-19T16:26:59;19.70;99.90
17891;DHT22;9071;48.220;14.480;2022-08-19T16:32:02;19.50;99.90
17891;DHT22;9071;48.220;14.480;2022-08-19T16:37:06;19.30;99.90
17891;DHT22;9071;48.220;14.480;2022-08-19T16:42:10;19.30;99.90
17891;DHT22;9071;48.220;14.480;2022-08-19T16:47:13;19.20;99.90
17891;DHT22;9071;48.220;14.480;2022-08-19T16:52:18;19.20;99.90
17891;DHT22;9071;48.220;14.480;2022-08-19T16:57:21;19.20;99.90
17891;DHT22;9071;48.220;14.480;2022-08-19T17:02:24;19.20;99.90
17891;DHT22;9071;48.220;14.480;2022-08-19T17:07:29;19.20;99.90
17891;DHT22;9071;48.220;14.480;2022-08-19T17:12:31;19.20;99.90
17891;DHT22;9071;48.220;14.480;2022-08-19T17:17:34;19.30;99.90
17891;DHT22;9071;48.220;14.480;2022-08-19T17:22:38;19.30;99.90
17891;DHT22;9071;48.220;14.480;2022-08-19T17:27:40;19.20;99.90
17891;DHT22;9071;48.220;14.480;2022-08-19T17:32:43;19.20;99.90
17891;DHT22;9071;48.220;14.480;2022-08-19T17:37:49;19.20;99.90
17891;DHT22;9071;48.220;14.480;2022-08-19T17:42:51;19.10;99.90
17891;DHT22;9071;48.220;14.480;2022-08-19T17:47:54;19.10;99.90
17891;DHT22;9071;48.220;14.480;2022-08-19T17:52:58;19.00;99.90
17891;DHT22;9071;48.220;14.480;2022-08-19T17:58:01;18.80;99.90
17891;DHT22;9071;48.220;14.480;2022-08-19T18:03:05;18.70;99.90
17891;DHT22;9071;48.220;14.480;2022-08-19T18:08:10;18.50;99.90
17891;DHT22;9071;48.220;14.480;2022-08-19T18:13:12;18.40;99.90
17891;DHT22;9071;48.220;14.480;2022-08-19T18:18:14;18.20;99.90
17891;DHT22;9071;48.220;14.480;2022-08-19T18:23:17;18.10;99.90
17891;DHT22;9071;48.220;14.480;2022-08-19T18:28:19;17.90;99.90
17891;DHT22;9071;48.220;14.480;2022-08-19T18:33:23;17.80;99.90
17891;DHT22;9071;48.220;14.480;2022-08-19T18:38:26;17.70;99.90
17891;DHT22;9071;48.220;14.480;2022-08-19T18:43:46;17.70;99.90
17891;DHT22;9071;48.220;14.480;2022-08-19T18:49:06;17.70;99.90
17891;DHT22;9071;48.220;14.480;2022-08-19T18:54:10;17.80;99.90
17891;DHT22;9071;48.220;14.480;2022-08-19T18:59:13;17.80;99.90
17891;DHT22;9071;48.220;14.480;2022-08-19T19:04:17;17.80;99.90
17891;DHT22;9071;48.220;14.480;2022-08-19T19:09:22;17.80;99.90
17891;DHT22;9071;48.220;14.480;2022-08-19T19:14:27;17.70;99.90
17891;DHT22;9071;48.220;14.480;2022-08-19T19:19:33;17.60;99.90
17891;DHT22;9071;48.220;14.480;2022-08-19T19:24:39;17.70;99.90
17891;DHT22;9071;48.220;14.480;2022-08-19T19:29:43;17.70;99.90
17891;DHT22;9071;48.220;14.480;2022-08-19T19:34:46;17.70;99.90
17891;DHT22;9071;48.220;14.480;2022-08-19T19:39:49;17.80;99.90
17891;DHT22;9071;48.220;14.480;2022-08-19T19:44:54;17.80;99.90
17891;DHT22;9071;48.220;14.480;2022-08-19T19:49:56;17.90;99.90
17891;DHT22;9071;48.220;14.480;2022-08-19T19:55:00;17.90;99.90
17891;DHT22;9071;48.220;14.480;2022-08-19T20:00:03;17.90;99.90
17891;DHT22;9071;48.220;14.480;2022-08-19T20:05:07;17.90;99.90
17891;DHT22;9071;48.220;14.480;2022-08-19T20:10:11;18.00;99.90
17891;DHT22;9071;48.220;14.480;2022-08-19T20:15:14;18.20;99.90
17891;DHT22;9071;48.220;14.480;2022-08-19T20:20:16;18.30;99.90
17891;DHT22;9071;48.220;14.480;2022-08-19T20:25:20;18.40;99.90
17891;DHT22;9071;48.220;14.480;2022-08-19T20:30:23;18.50;99.90
17891;DHT22;9071;48.220;14.480;2022-08-19T20:35:25;18.50;99.90
17891;DHT22;9071;48.220;14.480;2022-08-19T20:40:29;18.60;99.90
17891;DHT22;9071;48.220;14.480;2022-08-19T20:45:31;18.60;99.90
17891;DHT22;9071;48.220;14.480;2022-08-19T20:50:38;18.50;99.90
17891;DHT22;9071;48.220;14.480;2022-08-19T20:55:44;18.60;99.90
17891;DHT22;9071;48.220;14.480;2022-08-19T21:00:47;18.60;99.90
17891;DHT22;9071;48.220;14.480;2022-08-19T21:05:49;18.60;99.90
17891;DHT22;9071;48.220;14.480;2022-08-19T21:10:54;18.60;99.90
17891;DHT22;9071;48.220;14.480;2022-08-19T21:15:57;18.60;99.90
17891;DHT22;9071;48.220;14.480;2022-08-19T21:20:59;18.50;99.90
17891;DHT22;9071;48.220;14.480;2022-08-19T21:26:02;18.40;99.90
17891;DHT22;9071;48.220;14.480;2022-08-19T21:31:05;18.50;99.90
17891;DHT22;9071;48.220;14.480;2022-08-19T21:36:10;18.60;99.90
17891;DHT22;9071;48.220;14.480;2022-08-19T21:41:13;18.50;99.90
17891;DHT22;9071;48.220;14.480;2022-08-19T21:46:15;18.50;99.90
17891;DHT22;9071;48.220;14.480;2022-08-19T21:51:17;18.50;99.90
17891;DHT22;9071;48.220;14.480;2022-08-19T21:56:21;18.40;99.90
17891;DHT22;9071;48.220;14.480;2022-08-19T22:01:24;18.40;99.90
17891;DHT22;9071;48.220;14.480;2022-08-19T22:06:26;18.30;99.90
17891;DHT22;9071;48.220;14.480;2022-08-19T22:11:29;18.30;99.90
17891;DHT22;9071;48.220;14.480;2022-08-19T22:16:31;18.20;99.90
17891;DHT22;9071;48.220;14.480;2022-08-19T22:21:33;18.20;99.90
17891;DHT22;9071;48.220;14.480;2022-08-19T22:26:38;18.20;99.90
17891;DHT22;9071;48.220;14.480;2022-08-19T22:31:40;18.20;99.90
17891;DHT22;9071;48.220;14.480;2022-08-19T22:36:42;18.20;99.90
17891;DHT22;9071;48.220;14.480;2022-08-19T22:41:45;18.10;99.90
17891;DHT22;9071;48.220;14.480;2022-08-19T22:46:49;18.10;99.90
17891;DHT22;9071;48.220;14.480;2022-08-19T22:51:51;18.10;99.90
17891;DHT22;9071;48.220;14.480;2022-08-19T22:57:12;18.10;99.90
17891;DHT22;9071;48.220;14.480;2022-08-19T23:02:17;18.20;99.90
17891;DHT22;9071;48.220;14.480;2022-08-19T23:07:20;18.10;99.90
17891;DHT22;9071;48.220;14.480;2022-08-19T23:12:29;18.10;99.90
17891;DHT22;9071;48.220;14.480;2022-08-19T23:17:32;18.00;99.90
17891;DHT22;9071;48.220;14.480;2022-08-19T23:22:36;18.00;99.90
17891;DHT22;9071;48.220;14.480;2022-08-19T23:27:41;17.90;99.90
17891;DHT22;9071;48.220;14.480;2022-08-19T23:33:05;17.80;99.90
17891;DHT22;9071;48.220;14.480;2022-08-19T23:38:08;17.80;99.90
17891;DHT22;9071;48.220;14.480;2022-08-19T23:43:11;17.60;99.90
17891;DHT22;9071;48.220;14.480;2022-08-19T23:48:15;17.40;99.90
17891;DHT22;9071;48.220;14.480;2022-08-19T23:53:18;17.30;99.90
17891;DHT22;9071;48.220;14.480;2022-08-19T23:58:22;17.30;99.90
